Hare, Texas
Current Conditions -  °F | °C
As of 5:58 AM on Saturday 25 Oct 2014 (Local Time) from KGRK Reporting Station
Clear Clear  
Wind Chill: 65°   Ceiling: Unl
Heat Index: 65°   Visibility: 10mi
Dew Point: 57°   Wind: 7mph
Humidity: 75%   Direction: 190°S
Pressure: 30.13"   Gusts: NA
Location:  30.5793°N, 97.5096°W
Report Text: KGRK 251058Z AUTO 19006KT 10SM CLR 18/14 A3013 RMK AO2 SLP195 T01820138
Loading
Personal Weather Stations






























Interactive Weather Map
Tropical Storm Tracking
New forecast layout! Learn more

10-Day Weather Forecast

Advertisements
Track Severe Weather on mobile